Time;durP1;ratioP1;P1;durP2;ratioP2;P2;SDS_P1;SDS_P2;PMS_P1;PMS_P2;Temp;Humidity;BMP_temperature;BMP_pressure;BME280_temperature;BME280_humidity;BME280_pressure;Samples;Min_cycle;Max_cycle;Signal;HPM_P1;HPM_P2
2022/09/11 00:00:18;;;;;;;30.15;24.85;;;15.10;99.90;;;;;;5017409;28;20094;-91
2022/09/11 00:02:44;;;;;;;34.80;26.10;;;14.30;99.90;;;;;;5017523;28;20046;-91
2022/09/11 00:05:09;;;;;;;28.35;22.20;;;14.30;99.90;;;;;;5033475;28;20060;-91
2022/09/11 00:07:35;;;;;;;26.27;22.05;;;14.30;99.90;;;;;;5016647;28;20091;-91
2022/09/11 00:10:01;;;;;;;26.20;22.08;;;15.30;99.90;;;;;;5018265;28;20045;-91
2022/09/11 00:12:27;;;;;;;28.80;21.40;;;14.30;99.90;;;;;;5016937;28;20048;-91
2022/09/11 00:14:52;;;;;;;28.95;22.98;;;14.30;99.90;;;;;;5017702;28;20091;-91
2022/09/11 00:17:18;;;;;;;29.23;23.85;;;14.70;99.90;;;;;;5017022;28;20056;-91
2022/09/11 00:19:44;;;;;;;24.27;19.23;;;14.30;99.90;;;;;;5017379;28;20049;-92
2022/09/11 00:22:10;;;;;;;27.40;22.40;;;14.30;99.90;;;;;;5017644;28;20059;-91
2022/09/11 00:24:36;;;;;;;30.67;22.08;;;14.30;99.90;;;;;;5016627;28;20131;-90
2022/09/11 00:27:01;;;;;;;28.55;23.05;;;14.30;99.90;;;;;;5018080;28;20131;-90
2022/09/11 00:29:28;;;;;;;26.15;21.65;;;14.20;99.90;;;;;;5016206;28;20040;-91
2022/09/11 00:31:56;;;;;;;27.50;21.42;;;14.30;99.90;;;;;;5018173;28;20508;-91
2022/09/11 00:34:22;;;;;;;31.23;23.40;;;14.20;99.90;;;;;;5016683;28;20508;-91
2022/09/11 00:36:48;;;;;;;26.25;21.25;;;14.30;99.90;;;;;;5017617;28;20058;-91
2022/09/11 00:39:13;;;;;;;24.52;21.13;;;14.20;99.90;;;;;;5017311;28;20446;-91
2022/09/11 00:41:44;;;;;;;23.88;20.52;;;14.90;99.90;;;;;;5016617;28;20046;-91
2022/09/11 00:44:17;;;;;;;26.85;21.55;;;14.10;99.90;;;;;;5034686;28;20056;-91
2022/09/11 00:46:55;;;;;;;23.98;20.65;;;14.70;99.90;;;;;;5048875;28;20048;-91
2022/09/11 00:49:23;;;;;;;25.63;19.70;;;14.10;99.90;;;;;;5033792;28;20045;-91
2022/09/11 00:51:56;;;;;;;23.20;20.55;;;14.90;99.90;;;;;;5033316;28;20040;-91
2022/09/11 00:54:32;;;;;;;24.23;19.77;;;14.00;99.90;;;;;;5033127;28;20047;-91
2022/09/11 00:57:01;;;;;;;20.55;18.40;;;14.00;99.90;;;;;;5034598;28;20563;-91
2022/09/11 00:59:30;;;;;;;23.77;20.08;;;13.90;99.90;;;;;;5032915;28;20083;-91
2022/09/11 01:01:55;;;;;;;22.35;17.67;;;14.70;99.90;;;;;;5034087;28;20048;-91
2022/09/11 01:04:22;;;;;;;20.48;17.48;;;13.90;99.90;;;;;;5016269;28;20040;-91
2022/09/11 01:06:52;;;;;;;19.55;16.55;;;14.10;99.90;;;;;;5017190;28;20046;-91
2022/09/11 01:09:19;;;;;;;21.20;17.13;;;14.10;99.90;;;;;;5033422;28;20047;-91
2022/09/11 01:11:59;;;;;;;23.52;18.75;;;14.00;99.90;;;;;;5016265;28;20488;-91
2022/09/11 01:14:27;;;;;;;22.30;18.13;;;13.70;99.90;;;;;;5033949;28;20051;-91
2022/09/11 01:17:03;;;;;;;19.42;16.02;;;13.90;99.90;;;;;;5034701;28;20174;-91
2022/09/11 01:19:40;;;;;;;22.77;19.23;;;13.70;99.90;;;;;;5019557;28;20052;-91
2022/09/11 01:22:19;;;;;;;21.08;17.17;;;14.10;99.90;;;;;;5016977;28;20041;-90
2022/09/11 01:24:56;;;;;;;18.90;16.90;;;13.70;99.90;;;;;;5016180;28;20041;-92
2022/09/11 01:27:41;;;;;;;20.90;17.73;;;13.70;99.90;;;;;;5017568;28;20045;-91
2022/09/11 01:30:08;;;;;;;22.00;18.10;;;13.70;99.90;;;;;;5016498;28;20045;-90
2022/09/11 01:32:47;;;;;;;19.40;16.33;;;13.60;99.90;;;;;;5016585;28;20041;-91
2022/09/11 01:35:24;;;;;;;20.17;17.10;;;13.60;99.90;;;;;;5017355;28;20037;-92
2022/09/11 01:37:57;;;;;;;22.77;16.17;;;13.50;99.90;;;;;;5016182;28;20037;-91
2022/09/11 01:40:38;;;;;;;21.92;16.13;;;13.50;99.90;;;;;;5017038;28;20045;-92
2022/09/11 01:43:12;;;;;;;20.27;17.15;;;13.50;99.90;;;;;;5016707;28;20044;-90
2022/09/11 01:45:43;;;;;;;17.15;15.02;;;13.90;99.90;;;;;;5016495;28;20080;-92
2022/09/11 01:48:09;;;;;;;17.98;16.25;;;13.40;99.90;;;;;;5017280;28;20392;-90
2022/09/11 01:50:39;;;;;;;21.48;17.70;;;13.60;99.90;;;;;;4999285;28;20134;-91
2022/09/11 01:53:05;;;;;;;19.52;15.73;;;13.50;99.90;;;;;;5017358;28;20440;-92
2022/09/11 01:55:41;;;;;;;22.02;16.77;;;13.40;99.90;;;;;;5000120;28;20037;-91
2022/09/11 01:58:10;;;;;;;19.95;16.65;;;13.40;99.90;;;;;;5016769;28;20091;-90
2022/09/11 02:00:38;;;;;;;24.40;14.95;;;13.60;99.90;;;;;;5016927;28;20064;-91
2022/09/11 02:03:14;;;;;;;24.65;19.38;;;14.50;99.90;;;;;;5016719;28;20059;-91
2022/09/11 02:05:49;;;;;;;22.08;14.40;;;13.40;99.90;;;;;;5019591;28;20707;-91
2022/09/11 02:08:38;;;;;;;19.73;15.95;;;13.90;99.90;;;;;;5017789;28;20052;-91
2022/09/11 02:11:07;;;;;;;17.90;16.00;;;13.30;99.90;;;;;;5029342;28;20099;-92
2022/09/11 02:13:39;;;;;;;21.05;16.27;;;13.30;99.90;;;;;;5017371;28;20094;-91
2022/09/11 02:16:13;;;;;;;20.60;16.02;;;13.20;99.90;;;;;;5032714;28;20119;-92
2022/09/11 02:19:07;;;;;;;21.77;15.30;;;13.20;99.90;;;;;;5043343;28;20060;-93
2022/09/11 02:21:34;;;;;;;17.95;14.70;;;13.40;99.90;;;;;;5034350;28;20424;-91
2022/09/11 02:24:00;;;;;;;18.85;15.80;;;13.70;99.90;;;;;;5035743;28;20048;-91
2022/09/11 02:26:30;;;;;;;20.17;17.27;;;13.20;99.90;;;;;;5019650;28;20116;-92
2022/09/11 02:28:56;;;;;;;19.33;16.08;;;13.20;99.90;;;;;;5051354;28;20029;-92
2022/09/11 02:31:22;;;;;;;14.95;13.43;;;13.20;99.90;;;;;;5036513;28;20044;-91
2022/09/11 02:33:48;;;;;;;22.55;16.55;;;13.30;99.90;;;;;;5018796;28;20045;-92
2022/09/11 02:36:35;;;;;;;20.77;16.60;;;14.10;99.90;;;;;;5035930;28;20044;-92
2022/09/11 02:39:28;;;;;;;17.65;15.52;;;13.20;99.90;;;;;;5052114;28;20084;-92
2022/09/11 02:41:59;;;;;;;20.67;16.58;;;13.20;99.90;;;;;;5034947;28;20036;-91
2022/09/11 02:44:48;;;;;;;19.65;15.15;;;13.20;99.90;;;;;;5052899;28;20119;-92
2022/09/11 02:47:26;;;;;;;16.55;13.63;;;13.20;99.90;;;;;;5035921;28;20053;-90
2022/09/11 02:50:18;;;;;;;23.27;15.77;;;13.20;99.90;;;;;;5035179;28;20044;-92
2022/09/11 02:53:22;;;;;;;12.70;10.88;;;13.20;99.90;;;;;;5036262;28;20057;-91
2022/09/11 02:56:14;;;;;;;18.77;14.20;;;13.10;99.90;;;;;;5052067;28;20556;-91
2022/09/11 02:58:54;;;;;;;18.80;15.52;;;13.10;99.90;;;;;;5034559;28;20412;-92
2022/09/11 03:01:20;;;;;;;16.52;14.60;;;13.10;99.90;;;;;;5036074;28;20132;-92
2022/09/11 03:03:46;;;;;;;14.98;13.32;;;13.10;99.90;;;;;;5017590;28;20040;-92
2022/09/11 03:06:19;;;;;;;17.83;13.75;;;13.10;99.90;;;;;;5019103;28;20047;-93
2022/09/11 03:08:45;;;;;;;24.55;15.57;;;13.10;99.90;;;;;;5034989;28;20037;-91
2022/09/11 03:11:14;;;;;;;20.27;15.93;;;13.00;99.90;;;;;;5034623;28;20051;-92
2022/09/11 03:13:40;;;;;;;14.73;13.20;;;13.30;99.90;;;;;;5019572;28;20044;-92
2022/09/11 03:16:06;;;;;;;15.57;13.32;;;13.00;99.90;;;;;;5017461;28;20400;-92
2022/09/11 03:18:32;;;;;;;17.48;14.40;;;13.00;99.90;;;;;;5027904;28;20053;-92
2022/09/11 03:20:59;;;;;;;14.45;12.30;;;13.00;99.90;;;;;;4997991;28;20052;-92
2022/09/11 03:23:25;;;;;;;14.27;12.77;;;13.60;99.90;;;;;;5015352;28;20050;-92
2022/09/11 03:25:51;;;;;;;20.33;14.20;;;12.90;99.90;;;;;;4998596;28;20045;-92
2022/09/11 03:28:17;;;;;;;15.57;12.95;;;12.90;99.90;;;;;;5014823;28;20043;-92
2022/09/11 03:30:43;;;;;;;17.60;13.45;;;12.90;99.90;;;;;;4999338;28;20528;-92
2022/09/11 03:33:08;;;;;;;18.38;13.52;;;13.40;99.90;;;;;;4997824;28;20377;-91
2022/09/11 03:35:34;;;;;;;17.23;14.57;;;13.10;99.90;;;;;;5015555;28;20037;-92
2022/09/11 03:38:00;;;;;;;15.05;12.60;;;12.80;99.90;;;;;;5013107;28;20574;-92
2022/09/11 03:40:26;;;;;;;15.23;12.55;;;12.80;99.90;;;;;;5031840;28;20049;-93
2022/09/11 03:42:52;;;;;;;13.63;12.10;;;12.80;99.90;;;;;;4998372;28;20045;-92
2022/09/11 03:45:18;;;;;;;12.98;11.02;;;12.70;99.90;;;;;;5030832;28;20130;-93
2022/09/11 03:47:45;;;;;;;13.52;11.77;;;12.70;99.90;;;;;;4998794;28;20175;-92
2022/09/11 03:50:11;;;;;;;13.95;10.65;;;13.60;99.90;;;;;;5030140;28;20052;-92
2022/09/11 03:52:38;;;;;;;13.95;11.38;;;12.80;99.90;;;;;;5015386;28;20517;-92
2022/09/11 03:55:04;;;;;;;14.60;12.88;;;12.70;99.90;;;;;;5013519;28;20485;-92
2022/09/11 03:57:34;;;;;;;13.98;12.20;;;12.60;99.90;;;;;;4999202;28;20401;-92
2022/09/11 04:00:03;;;;;;;14.63;12.60;;;12.60;99.90;;;;;;5014564;28;20044;-93
2022/09/11 04:02:28;;;;;;;13.68;12.23;;;12.60;99.90;;;;;;4998877;28;20040;-93
2022/09/11 04:04:54;;;;;;;13.27;11.60;;;12.50;99.90;;;;;;4999024;28;20090;-92
2022/09/11 04:07:21;;;;;;;14.23;11.20;;;12.60;99.90;;;;;;4998383;28;20049;-93
2022/09/11 04:09:47;;;;;;;15.93;14.20;;;12.90;99.90;;;;;;5007358;28;20045;-92
2022/09/11 04:12:12;;;;;;;15.40;12.77;;;12.50;99.90;;;;;;5010488;28;20033;-94
2022/09/11 04:14:38;;;;;;;15.95;12.05;;;13.60;99.90;;;;;;5011376;28;20041;-93
2022/09/11 04:17:05;;;;;;;15.48;11.13;;;12.60;99.90;;;;;;5038824;28;20053;-93
2022/09/11 04:19:31;;;;;;;15.23;11.77;;;12.60;99.90;;;;;;5013963;28;20255;-93
2022/09/11 04:21:56;;;;;;;12.65;11.20;;;13.10;99.90;;;;;;5019166;28;20115;-93
2022/09/11 04:24:22;;;;;;;15.48;12.95;;;12.50;99.90;;;;;;5016971;28;20041;-93
2022/09/11 04:26:48;;;;;;;17.02;14.10;;;13.70;99.90;;;;;;5018519;28;20051;-93
2022/09/11 04:29:13;;;;;;;14.13;12.63;;;12.50;99.90;;;;;;5016898;28;20043;-93
2022/09/11 04:31:40;;;;;;;14.00;12.57;;;12.90;99.90;;;;;;5017993;28;20032;-93
2022/09/11 04:34:05;;;;;;;12.98;11.68;;;12.60;99.90;;;;;;5017098;28;20376;-93
2022/09/11 04:36:31;;;;;;;12.27;10.65;;;12.60;99.90;;;;;;5017404;28;20047;-93
2022/09/11 04:38:59;;;;;;;14.23;11.55;;;12.60;99.90;;;;;;5017279;28;20040;-93
2022/09/11 04:41:25;;;;;;;11.82;10.63;;;13.30;99.90;;;;;;5017052;28;20063;-93
2022/09/11 04:43:56;;;;;;;12.38;11.07;;;12.80;99.90;;;;;;5034384;28;20037;-92
2022/09/11 04:46:25;;;;;;;15.43;11.10;;;13.70;99.90;;;;;;5016386;28;20060;-92
2022/09/11 04:48:54;;;;;;;11.50;10.30;;;12.70;99.90;;;;;;5018605;28;20040;-93
2022/09/11 04:51:25;;;;;;;12.63;10.65;;;12.90;99.90;;;;;;5036986;28;20036;-93
2022/09/11 04:53:56;;;;;;;11.73;10.15;;;12.50;99.90;;;;;;5037448;28;20044;-94
2022/09/11 04:56:27;;;;;;;11.73;10.18;;;12.90;99.90;;;;;;5038461;28;20044;-92
2022/09/11 04:58:56;;;;;;;25.15;11.30;;;12.50;99.90;;;;;;5021679;28;20499;-93
2022/09/11 05:01:23;;;;;;;10.90;9.63;;;12.50;99.90;;;;;;5039180;28;20041;-94
2022/09/11 05:03:49;;;;;;;16.15;10.82;;;13.00;99.90;;;;;;5036971;28;20479;-93
2022/09/11 05:06:15;;;;;;;15.43;12.23;;;13.70;99.90;;;;;;5037794;28;20083;-94
2022/09/11 05:08:43;;;;;;;11.93;10.70;;;12.60;99.90;;;;;;5037888;28;20044;-93
2022/09/11 05:11:12;;;;;;;12.60;11.27;;;12.90;99.90;;;;;;5037205;28;20041;-94
2022/09/11 05:13:38;;;;;;;12.95;11.60;;;12.60;99.90;;;;;;5038235;28;20102;-93
2022/09/11 05:16:05;;;;;;;14.20;12.70;;;12.80;99.90;;;;;;5020765;28;20549;-93
2022/09/11 05:18:31;;;;;;;12.63;9.70;;;12.70;99.90;;;;;;5038286;28;20057;-93
2022/09/11 05:21:05;;;;;;;14.00;10.95;;;12.80;99.90;;;;;;5021465;28;20180;-95
2022/09/11 05:23:31;;;;;;;13.48;12.07;;;13.00;99.90;;;;;;5024331;28;20135;-93
2022/09/11 05:25:58;;;;;;;17.52;11.20;;;13.20;99.90;;;;;;5024382;28;20045;-93
2022/09/11 05:28:25;;;;;;;11.02;9.93;;;12.70;99.90;;;;;;5022612;28;20405;-94
2022/09/11 05:30:55;;;;;;;13.35;11.95;;;12.70;99.90;;;;;;5022182;28;20049;-92
2022/09/11 05:33:22;;;;;;;13.63;11.07;;;12.70;99.90;;;;;;5019841;28;20083;-93
2022/09/11 05:35:52;;;;;;;13.60;11.88;;;12.80;99.90;;;;;;5021839;28;20044;-93
2022/09/11 05:38:19;;;;;;;13.63;10.73;;;12.80;99.90;;;;;;5020095;28;20045;-93
2022/09/11 05:40:49;;;;;;;14.40;11.82;;;12.90;99.90;;;;;;5036573;28;20076;-93
2022/09/11 05:43:16;;;;;;;13.65;12.07;;;13.30;99.90;;;;;;5036788;28;20102;-93
2022/09/11 05:45:43;;;;;;;17.52;13.82;;;13.00;99.90;;;;;;5036250;28;20471;-94
2022/09/11 05:48:09;;;;;;;13.25;11.63;;;13.10;99.90;;;;;;5037819;28;20423;-93
2022/09/11 05:50:35;;;;;;;14.15;11.85;;;12.70;99.90;;;;;;5052201;28;20068;-91
2022/09/11 05:53:01;;;;;;;16.58;11.32;;;13.90;99.90;;;;;;5020258;28;20558;-92
2022/09/11 05:55:27;;;;;;;12.68;11.35;;;13.20;99.90;;;;;;5035952;28;20399;-89
2022/09/11 05:57:53;;;;;;;18.05;13.18;;;13.30;99.90;;;;;;5018462;28;20102;-93
2022/09/11 06:00:19;;;;;;;16.13;12.52;;;14.20;99.90;;;;;;5020091;28;20075;-93
2022/09/11 06:02:47;;;;;;;15.82;13.63;;;13.40;99.90;;;;;;5018421;28;20115;-93
2022/09/11 06:05:14;;;;;;;13.88;12.45;;;13.40;99.90;;;;;;5021050;28;20045;-93
2022/09/11 06:07:40;;;;;;;16.77;14.48;;;13.70;99.90;;;;;;5035747;28;20365;-92
2022/09/11 06:10:08;;;;;;;21.45;14.98;;;13.70;99.90;;;;;;5020913;28;20394;-91
2022/09/11 06:12:34;;;;;;;15.57;13.48;;;13.80;99.90;;;;;;5019007;28;20048;-94
2022/09/11 06:15:00;;;;;;;16.75;12.68;;;13.90;99.90;;;;;;5019601;28;20037;-92
2022/09/11 06:17:27;;;;;;;17.15;14.40;;;13.90;99.90;;;;;;5019508;28;20044;-92
2022/09/11 06:19:53;;;;;;;18.77;14.48;;;14.00;99.90;;;;;;5018601;28;20059;-91
2022/09/11 06:22:20;;;;;;;17.80;14.80;;;13.00;99.90;;;;;;5020422;28;20492;-91
2022/09/11 06:24:47;;;;;;;17.88;13.60;;;14.20;99.90;;;;;;5034512;28;20108;-91
2022/09/11 06:27:13;;;;;;;13.93;12.48;;;14.80;99.90;;;;;;5020245;28;20063;-89
2022/09/11 06:29:39;;;;;;;13.70;12.35;;;14.40;99.90;;;;;;5034119;28;20045;-90
2022/09/11 06:32:05;;;;;;;16.00;14.15;;;14.50;99.90;;;;;;5019125;28;20389;-90
2022/09/11 06:34:32;;;;;;;14.65;13.10;;;14.60;99.90;;;;;;5019567;28;20067;-89
2022/09/11 06:36:57;;;;;;;15.00;13.30;;;14.70;99.90;;;;;;5034927;28;20314;-88
2022/09/11 06:39:23;;;;;;;16.35;13.48;;;14.90;99.90;;;;;;5018404;28;20074;-87
2022/09/11 06:41:49;;;;;;;17.83;13.43;;;15.00;99.90;;;;;;5016315;28;20053;-87
2022/09/11 06:44:15;;;;;;;15.63;11.63;;;15.10;99.90;;;;;;5037907;28;20094;-87
2022/09/11 06:46:41;;;;;;;15.77;12.77;;;15.20;99.90;;;;;;5033514;28;20503;-87
2022/09/11 06:49:06;;;;;;;12.57;11.07;;;15.40;99.90;;;;;;5050863;28;20127;-88
2022/09/11 06:51:33;;;;;;;13.85;11.38;;;15.40;99.90;;;;;;5050626;28;20131;-88
2022/09/11 06:54:01;;;;;;;12.23;10.93;;;15.50;99.90;;;;;;5033728;28;20059;-88
2022/09/11 06:56:27;;;;;;;11.82;10.70;;;15.80;99.90;;;;;;5034172;28;20082;-87
2022/09/11 06:58:53;;;;;;;12.20;10.15;;;15.70;99.90;;;;;;5049008;28;20511;-89
2022/09/11 07:01:20;;;;;;;13.43;10.70;;;15.70;99.90;;;;;;5051183;28;20044;-88
2022/09/11 07:03:49;;;;;;;11.00;9.63;;;16.20;99.90;;;;;;5032743;28;20496;-88
2022/09/11 07:06:16;;;;;;;11.52;10.32;;;16.50;99.90;;;;;;5068385;28;20082;-87
2022/09/11 07:08:42;;;;;;;12.65;9.13;;;16.10;99.90;;;;;;5034058;28;20044;-87
2022/09/11 07:11:11;;;;;;;11.32;10.20;;;16.20;99.90;;;;;;5016952;28;20059;-88
2022/09/11 07:13:37;;;;;;;14.10;10.73;;;16.30;99.90;;;;;;5034974;28;20046;-87
2022/09/11 07:16:06;;;;;;;11.05;9.95;;;16.40;99.90;;;;;;5032580;28;20049;-86
2022/09/11 07:18:37;;;;;;;9.05;8.25;;;16.50;99.90;;;;;;5050669;28;20063;-86
2022/09/11 07:21:15;;;;;;;9.85;8.65;;;16.70;99.90;;;;;;5032710;28;20544;-87
2022/09/11 07:23:41;;;;;;;10.13;8.85;;;16.80;99.90;;;;;;5034931;28;20051;-88
2022/09/11 07:26:09;;;;;;;12.05;9.20;;;16.90;99.90;;;;;;5033346;28;20162;-87
2022/09/11 07:28:36;;;;;;;10.00;8.90;;;17.00;99.90;;;;;;5048765;28;20048;-86
2022/09/11 07:31:11;;;;;;;9.90;8.77;;;17.10;99.90;;;;;;5050929;28;20408;-87
2022/09/11 07:33:38;;;;;;;10.63;8.32;;;17.30;99.90;;;;;;5048956;28;20589;-85
2022/09/11 07:36:11;;;;;;;11.10;7.90;;;17.40;99.90;;;;;;5033710;28;20041;-87
2022/09/11 07:38:45;;;;;;;9.50;7.85;;;17.50;99.90;;;;;;5033464;28;20045;-91
2022/09/11 07:41:12;;;;;;;9.52;8.52;;;17.60;99.90;;;;;;5033277;28;20094;-87
2022/09/11 07:43:47;;;;;;;10.15;7.03;;;17.70;99.90;;;;;;5034322;28;20044;-87
2022/09/11 07:46:13;;;;;;;11.77;6.57;;;17.70;99.90;;;;;;5033207;28;20399;-86
2022/09/11 07:48:41;;;;;;;6.68;5.85;;;17.80;99.90;;;;;;5033949;28;20076;-86
2022/09/11 07:51:09;;;;;;;9.90;7.10;;;17.90;99.90;;;;;;5016635;28;20048;-85
2022/09/11 07:53:40;;;;;;;6.78;6.07;;;18.00;99.90;;;;;;5049912;28;20056;-92
2022/09/11 07:56:09;;;;;;;6.38;5.38;;;18.10;99.90;;;;;;5033570;28;20400;-87
2022/09/11 07:58:39;;;;;;;6.28;4.78;;;18.20;99.90;;;;;;5048543;28;20083;-86
2022/09/11 08:01:10;;;;;;;7.55;4.35;;;18.30;99.90;;;;;;5050445;28;20040;-84
2022/09/11 08:03:36;;;;;;;10.55;4.88;;;18.40;99.90;;;;;;5048423;28;20045;-83
2022/09/11 08:06:06;;;;;;;8.10;4.75;;;18.50;99.90;;;;;;5033363;28;20086;-84
2022/09/11 08:08:33;;;;;;;8.27;4.70;;;18.60;99.90;;;;;;5049115;28;20040;-83
2022/09/11 08:11:17;;;;;;;7.65;4.43;;;17.90;99.90;;;;;;5032752;28;20550;-83
2022/09/11 08:13:49;;;;;;;4.80;4.22;;;18.80;99.90;;;;;;5050080;28;20044;-85
2022/09/11 08:16:16;;;;;;;5.73;3.63;;;19.30;99.90;;;;;;5031712;28;20078;-85
2022/09/11 08:18:42;;;;;;;7.10;3.58;;;19.00;99.90;;;;;;5049688;28;20068;-86
2022/09/11 08:21:10;;;;;;;6.22;3.75;;;19.10;99.90;;;;;;5048675;28;20049;-85
2022/09/11 08:23:41;;;;;;;6.20;3.47;;;19.30;99.90;;;;;;5015928;28;20135;-86
2022/09/11 08:26:09;;;;;;;9.63;3.45;;;19.20;99.90;;;;;;5032662;28;20487;-86
2022/09/11 08:28:36;;;;;;;3.85;2.72;;;19.20;99.90;;;;;;5048255;28;20051;-86
2022/09/11 08:31:02;;;;;;;3.88;1.50;;;19.10;99.90;;;;;;5033272;28;20097;-86
2022/09/11 08:33:28;;;;;;;3.08;1.42;;;19.10;99.90;;;;;;5048599;28;20416;-86
2022/09/11 08:35:56;;;;;;;2.63;1.30;;;19.10;99.90;;;;;;5033043;28;20041;-82
2022/09/11 08:38:23;;;;;;;3.65;1.10;;;19.20;99.90;;;;;;5032050;28;20048;-83
2022/09/11 08:40:50;;;;;;;4.13;0.90;;;19.20;99.90;;;;;;5015914;28;20076;-83
2022/09/11 08:43:43;;;;;;;2.70;1.13;;;19.30;99.90;;;;;;5032608;28;20044;-88
2022/09/11 08:46:10;;;;;;;5.35;1.67;;;19.50;99.90;;;;;;5051186;28;20052;-87
2022/09/11 08:49:03;;;;;;;3.33;1.23;;;19.70;99.90;;;;;;5017490;28;20127;-85
2022/09/11 08:51:30;;;;;;;;;;;19.90;99.90;;;;;;5032743;28;20040;-83
2022/09/11 08:53:58;;;;;;;4.95;1.17;;;20.10;99.90;;;;;;5015386;28;19920;-84
2022/09/11 08:56:28;;;;;;;1.75;0.80;;;20.30;99.90;;;;;;5049667;28;20444;-84
2022/09/11 08:59:17;;;;;;;4.15;2.00;;;20.50;99.90;;;;;;5047761;28;20087;-84
2022/09/11 09:02:12;;;;;;;3.13;1.30;;;20.60;99.90;;;;;;5032686;28;20448;-84
2022/09/11 09:05:13;;;;;;;4.90;1.48;;;20.70;99.90;;;;;;5048781;28;20045;-84
2022/09/11 09:08:06;;;;;;;3.42;1.42;;;20.90;99.90;;;;;;5047969;28;20045;-83
2022/09/11 09:10:51;;;;;;;;;;;21.10;99.90;;;;;;5033111;28;20060;-91
2022/09/11 09:13:37;;;;;;;4.40;1.27;;;21.20;99.90;;;;;;5049459;28;19920;-88
2022/09/11 09:16:35;;;;;;;3.38;1.10;;;21.40;99.90;;;;;;5031018;28;20480;-86
2022/09/11 09:19:26;;;;;;;4.22;0.95;;;21.50;99.90;;;;;;5048946;28;20500;-88
2022/09/11 09:22:24;;;;;;;3.35;0.90;;;21.60;99.90;;;;;;5032483;28;20045;-87
2022/09/11 09:24:57;;;;;;;6.45;1.45;;;21.70;99.90;;;;;;5030931;28;20049;-87
2022/09/11 09:27:29;;;;;;;4.03;1.42;;;21.80;99.90;;;;;;5032405;28;20041;-86
2022/09/11 09:30:00;;;;;;;4.60;1.42;;;21.90;99.90;;;;;;5032159;28;20499;-86
2022/09/11 09:32:42;;;;;;;6.20;0.80;;;22.00;99.90;;;;;;5031641;28;20083;-87
2022/09/11 09:35:37;;;;;;;1.20;0.60;;;22.30;99.90;;;;;;5067459;28;20476;-87
2022/09/11 09:38:10;;;;;;;3.22;0.82;;;22.50;99.90;;;;;;5033642;28;20045;-86
2022/09/11 09:40:38;;;;;;;3.78;0.60;;;22.60;99.90;;;;;;5035884;28;20040;-86
2022/09/11 09:43:13;;;;;;;2.08;0.50;;;22.70;99.90;;;;;;5052094;28;20083;-86
2022/09/11 09:46:14;;;;;;;1.75;0.60;;;22.70;99.90;;;;;;5034398;28;20052;-86
2022/09/11 09:48:40;;;;;;;2.78;0.70;;;22.80;99.90;;;;;;5052864;28;20051;-87
2022/09/11 09:51:11;;;;;;;1.38;0.73;;;22.70;99.90;;;;;;5051825;28;20462;-87
2022/09/11 09:53:43;;;;;;;1.88;0.52;;;22.60;99.90;;;;;;5052081;28;20070;-86
2022/09/11 09:56:15;;;;;;;2.97;0.80;;;22.50;99.90;;;;;;5035826;28;20040;-87
2022/09/11 09:58:51;;;;;;;3.17;0.65;;;22.40;99.90;;;;;;5050499;28;20895;-85
2022/09/11 10:01:47;;;;;;;1.55;0.47;;;22.20;99.90;;;;;;5035749;28;20500;-85
2022/09/11 10:04:23;;;;;;;6.05;1.20;;;21.90;99.90;;;;;;5031303;28;20068;-87
2022/09/11 10:07:13;;;;;;;3.10;0.70;;;21.70;99.90;;;;;;5050730;28;20045;-86
2022/09/11 10:09:56;;;;;;;2.95;0.95;;;21.50;99.90;;;;;;5047294;28;20559;-83
2022/09/11 10:12:24;;;;;;;;;;;21.40;99.90;;;;;;5051462;28;20114;-85
2022/09/11 10:14:55;;;;;;;5.00;1.58;;;21.30;99.90;;;;;;5035330;28;19920;-88
2022/09/11 10:17:22;;;;;;;4.78;2.65;;;21.20;99.90;;;;;;5034895;28;20044;-85
2022/09/11 10:19:49;;;;;;;5.05;2.70;;;21.10;99.90;;;;;;5034129;28;20438;-86
2022/09/11 10:22:23;;;;;;;5.68;3.03;;;21.10;99.90;;;;;;5019027;28;20051;-85
2022/09/11 10:25:17;;;;;;;6.50;2.45;;;21.10;99.90;;;;;;5033626;28;20132;-86
2022/09/11 10:28:02;;;;;;;4.53;2.13;;;21.00;99.90;;;;;;5034520;28;20041;-88
2022/09/11 10:30:59;;;;;;;3.38;1.75;;;21.00;99.90;;;;;;5052027;28;20063;-85
2022/09/11 10:33:33;;;;;;;3.40;1.48;;;20.90;99.90;;;;;;5025156;28;20052;-86
2022/09/11 10:36:02;;;;;;;2.28;1.25;;;21.00;99.90;;;;;;5051779;28;20076;-86
2022/09/11 10:38:43;;;;;;;4.70;1.40;;;21.00;99.90;;;;;;5034321;28;20120;-87
2022/09/11 10:41:21;;;;;;;2.85;1.20;;;21.10;99.90;;;;;;5050494;28;20131;-87
2022/09/11 10:44:00;;;;;;;7.65;1.20;;;21.10;99.90;;;;;;5052378;28;20059;-88
2022/09/11 10:46:33;;;;;;;2.72;0.90;;;21.10;99.90;;;;;;5033893;28;20044;-91
2022/09/11 10:49:05;;;;;;;3.30;1.17;;;21.20;99.90;;;;;;5034974;28;20427;-88
2022/09/11 10:51:33;;;;;;;4.05;0.90;;;21.40;99.90;;;;;;5035135;28;20074;-89
2022/09/11 10:54:21;;;;;;;3.53;1.08;;;21.60;99.90;;;;;;5051036;28;20040;-88
2022/09/11 10:56:59;;;;;;;3.40;1.13;;;21.70;99.90;;;;;;5035921;28;20127;-91
2022/09/11 10:59:45;;;;;;;5.07;1.77;;;21.70;99.90;;;;;;5034336;28;20044;-89
2022/09/11 11:02:24;;;;;;;2.03;0.93;;;21.70;99.90;;;;;;5014204;28;20175;-86
2022/09/11 11:04:51;;;;;;;2.85;1.05;;;21.80;99.90;;;;;;5035181;28;20045;-90
2022/09/11 11:08:04;;;;;;;3.05;1.05;;;21.90;99.90;;;;;;5016810;28;20047;-92
2022/09/11 11:10:43;;;;;;;;;;;22.00;99.90;;;;;;5051724;28;20048;-89
2022/09/11 11:13:54;;;;;;;2.95;1.20;;;22.20;99.90;;;;;;5037919;28;19920;-92
2022/09/11 11:16:45;;;;;;;3.13;1.02;;;22.40;99.90;;;;;;5012483;28;20517;-92
2022/09/11 11:19:37;;;;;;;3.63;1.20;;;22.60;99.90;;;;;;5052101;28;20524;-91
2022/09/11 11:22:40;;;;;;;5.70;1.58;;;22.60;99.90;;;;;;5037094;28;20168;-94
2022/09/11 11:25:17;;;;;;;3.08;0.77;;;22.50;99.90;;;;;;5049773;28;20116;-88
2022/09/11 11:28:05;;;;;;;5.05;1.40;;;22.30;99.90;;;;;;5034598;28;20047;-88
2022/09/11 11:30:49;;;;;;;6.45;1.27;;;22.20;99.90;;;;;;5035093;28;20087;-84
2022/09/11 11:33:37;;;;;;;2.17;0.63;;;22.20;99.90;;;;;;5033552;28;20435;-90
2022/09/11 11:36:18;;;;;;;4.18;0.77;;;22.10;99.90;;;;;;5035438;28;20032;-89
2022/09/11 11:38:51;;;;;;;4.43;1.55;;;22.10;99.90;;;;;;5034034;28;20131;-89
2022/09/11 11:41:22;;;;;;;1.48;0.70;;;22.10;99.90;;;;;;5050571;28;20107;-90
2022/09/11 11:43:51;;;;;;;3.63;0.77;;;22.10;99.90;;;;;;5035185;28;20040;-90
2022/09/11 11:46:39;;;;;;;2.40;0.93;;;22.10;99.90;;;;;;5032900;28;20472;-88
2022/09/11 11:49:18;;;;;;;4.97;0.90;;;22.20;99.90;;;;;;5033980;28;20048;-90
2022/09/11 11:51:53;;;;;;;6.22;1.10;;;22.20;99.90;;;;;;5034300;28;20060;-89
2022/09/11 11:54:33;;;;;;;6.53;1.33;;;22.30;99.90;;;;;;5033119;28;20132;-89
2022/09/11 11:57:12;;;;;;;2.60;0.88;;;22.30;99.90;;;;;;5034981;28;20116;-89
2022/09/11 11:59:45;;;;;;;2.47;0.98;;;22.40;99.90;;;;;;5049503;28;20052;-90
2022/09/11 12:02:34;;;;;;;1.00;0.60;;;22.50;99.90;;;;;;5034174;28;20052;-90
2022/09/11 12:05:12;;;;;;;4.78;0.95;;;22.70;99.90;;;;;;5029352;28;20076;-89
2022/09/11 12:07:40;;;;;;;11.77;1.20;;;23.10;99.90;;;;;;5036412;28;20495;-89
2022/09/11 12:10:17;;;;;;;2.83;0.75;;;23.40;99.90;;;;;;5024053;28;20127;-90
2022/09/11 12:13:04;;;;;;;3.00;1.17;;;23.60;99.90;;;;;;5045373;28;20040;-90
2022/09/11 12:15:33;;;;;;;3.55;0.98;;;23.80;99.90;;;;;;5044916;28;20044;-90
2022/09/11 12:18:03;;;;;;;2.13;0.77;;;23.90;99.90;;;;;;5029585;28;20102;-90
2022/09/11 12:20:39;;;;;;;7.00;1.17;;;24.20;99.90;;;;;;5026590;28;20041;-90
2022/09/11 12:23:31;;;;;;;2.95;1.10;;;24.30;99.90;;;;;;5018713;28;20060;-90
2022/09/11 12:26:05;;;;;;;1.80;0.82;;;24.20;99.90;;;;;;5015811;28;20044;-90
2022/09/11 12:28:31;;;;;;;5.13;1.02;;;24.00;99.90;;;;;;5050516;28;20483;-89
2022/09/11 12:31:01;;;;;;;5.68;1.23;;;24.00;99.90;;;;;;5034466;28;20049;-90
2022/09/11 12:33:43;;;;;;;3.85;1.52;;;24.10;99.90;;;;;;5032353;28;20417;-90
2022/09/11 12:36:23;;;;;;;3.42;1.60;;;24.30;99.90;;;;;;5033738;28;20087;-90
2022/09/11 12:39:23;;;;;;;5.13;1.83;;;24.50;99.90;;;;;;5036728;28;20480;-90
2022/09/11 12:41:49;;;;;;;5.07;1.90;;;24.40;99.90;;;;;;5037794;28;20048;-90
2022/09/11 12:44:44;;;;;;;4.47;1.77;;;24.20;99.90;;;;;;5022162;28;20048;-90
2022/09/11 12:47:31;;;;;;;3.55;2.08;;;23.80;99.90;;;;;;5035551;28;20545;-90
2022/09/11 12:50:06;;;;;;;3.63;1.48;;;23.50;99.90;;;;;;5035513;28;20044;-90
2022/09/11 12:52:50;;;;;;;3.80;1.40;;;23.20;99.90;;;;;;5052473;28;20040;-90
2022/09/11 12:55:54;;;;;;;4.35;1.70;;;22.90;99.90;;;;;;5032734;28;20047;-89
2022/09/11 12:58:24;;;;;;;5.55;2.50;;;22.80;99.90;;;;;;5012420;28;20496;-90
2022/09/11 13:01:01;;;;;;;3.40;1.60;;;22.60;99.90;;;;;;5034072;28;20050;-90
2022/09/11 13:03:28;;;;;;;4.28;1.92;;;22.40;99.90;;;;;;5032957;28;20059;-90